createdAt,value
2024-04-18T00:00:15.429Z,112.500000
2024-04-18T00:05:15.389Z,112.500000
2024-04-18T00:10:15.331Z,112.500000
2024-04-18T00:15:15.343Z,90.000000
2024-04-18T00:20:15.549Z,112.500000
2024-04-18T00:25:15.349Z,90.000000
2024-04-18T00:30:15.669Z,112.500000
2024-04-18T00:35:15.418Z,135.000000
2024-04-18T00:40:15.408Z,112.500000
2024-04-18T00:45:15.595Z,90.000000
2024-04-18T00:50:15.436Z,90.000000
2024-04-18T00:55:15.406Z,112.500000
2024-04-18T01:00:15.724Z,112.500000
2024-04-18T01:05:15.525Z,112.500000
2024-04-18T01:10:15.721Z,90.000000
2024-04-18T01:15:15.447Z,90.000000
2024-04-18T01:20:15.479Z,112.500000
2024-04-18T01:25:15.640Z,112.500000
2024-04-18T01:30:15.531Z,90.000000
2024-04-18T01:35:15.693Z,90.000000
2024-04-18T01:40:15.546Z,90.000000
2024-04-18T01:45:15.548Z,112.500000
2024-04-18T01:51:20.653Z,90.000000
2024-04-18T01:55:15.552Z,90.000000
2024-04-18T02:00:15.864Z,90.000000
2024-04-18T02:05:15.596Z,90.000000
2024-04-18T02:10:15.640Z,112.500000
2024-04-18T02:15:15.746Z,112.500000
2024-04-18T02:20:15.603Z,112.500000
2024-04-18T02:25:15.736Z,112.500000
2024-04-18T02:30:15.646Z,112.500000
2024-04-18T02:35:15.809Z,112.500000
2024-04-18T02:40:15.691Z,112.500000
2024-04-18T02:45:15.828Z,112.500000
2024-04-18T02:50:15.798Z,112.500000
2024-04-18T02:55:15.727Z,135.000000
2024-04-18T03:00:15.855Z,135.000000
2024-04-18T03:05:15.859Z,157.500000
2024-04-18T03:10:15.686Z,135.000000
2024-04-18T03:15:15.702Z,135.000000
2024-04-18T03:20:15.712Z,135.000000
2024-04-18T03:25:15.665Z,157.500000
2024-04-18T03:30:15.909Z,180.000000
2024-04-18T03:35:15.870Z,135.000000
2024-04-18T03:40:15.769Z,135.000000
2024-04-18T03:45:15.738Z,112.500000
2024-04-18T03:50:15.936Z,135.000000
2024-04-18T03:55:15.952Z,135.000000
2024-04-18T04:00:15.298Z,135.000000
2024-04-18T04:05:15.312Z,135.000000
2024-04-18T04:10:15.510Z,112.500000
2024-04-18T04:15:15.298Z,112.500000
2024-04-18T04:20:15.534Z,112.500000
2024-04-18T04:25:15.280Z,112.500000
2024-04-18T04:30:15.628Z,135.000000
2024-04-18T04:35:17.296Z,135.000000
2024-04-18T04:40:15.363Z,135.000000
2024-04-18T04:45:15.370Z,112.500000
2024-04-18T04:50:15.350Z,135.000000
2024-04-18T04:55:15.413Z,112.500000
2024-04-18T05:00:15.470Z,112.500000
2024-04-18T05:05:15.403Z,112.500000
2024-04-18T05:10:15.426Z,112.500000
2024-04-18T05:15:15.391Z,112.500000
2024-04-18T05:20:15.399Z,135.000000
2024-04-18T05:25:15.577Z,90.000000
2024-04-18T05:30:15.527Z,90.000000
2024-04-18T05:35:15.607Z,112.500000
2024-04-18T05:40:15.608Z,135.000000
2024-04-18T05:45:15.488Z,112.500000
2024-04-18T05:50:15.601Z,135.000000
2024-04-18T05:55:15.484Z,112.500000
2024-04-18T06:00:15.483Z,157.500000
2024-04-18T06:05:15.575Z,112.500000
2024-04-18T06:10:15.637Z,157.500000
2024-04-18T06:15:15.539Z,112.500000
2024-04-18T06:20:15.464Z,90.000000
2024-04-18T06:25:15.487Z,90.000000
2024-04-18T06:30:15.523Z,112.500000
2024-04-18T06:35:15.692Z,112.500000
2024-04-18T06:40:15.654Z,112.500000
2024-04-18T06:45:15.725Z,90.000000
2024-04-18T06:50:15.699Z,90.000000
2024-04-18T06:55:15.757Z,90.000000
2024-04-18T07:00:15.629Z,90.000000
2024-04-18T07:05:15.623Z,112.500000
2024-04-18T07:10:15.636Z,112.500000
2024-04-18T07:15:15.595Z,67.500000
2024-04-18T07:20:15.616Z,112.500000
2024-04-18T07:25:15.777Z,112.500000
2024-04-18T07:30:17.666Z,67.500000
2024-04-18T07:35:15.663Z,45.000000
2024-04-18T07:40:15.649Z,45.000000
2024-04-18T07:45:15.660Z,67.500000
2024-04-18T07:50:15.744Z,67.500000
2024-04-18T07:55:15.646Z,90.000000
2024-04-18T08:00:16.236Z,67.500000
2024-04-18T08:05:17.760Z,67.500000
2024-04-18T08:10:18.341Z,45.000000
2024-04-18T08:15:20.506Z,45.000000
2024-04-18T08:20:15.819Z,45.000000
2024-04-18T08:25:15.771Z,45.000000
2024-04-18T08:30:15.798Z,112.500000
2024-04-18T08:35:15.894Z,67.500000
2024-04-18T08:40:15.734Z,67.500000
2024-04-18T08:45:15.822Z,90.000000
2024-04-18T08:50:15.837Z,67.500000
2024-04-18T08:55:15.902Z,45.000000
2024-04-18T09:00:15.835Z,45.000000
2024-04-18T09:05:17.818Z,45.000000
2024-04-18T09:10:15.999Z,45.000000
2024-04-18T09:15:15.858Z,45.000000
2024-04-18T09:20:15.828Z,45.000000
2024-04-18T09:25:15.965Z,45.000000
2024-04-18T09:30:16.048Z,45.000000
2024-04-18T09:35:15.785Z,45.000000
2024-04-18T09:40:16.045Z,45.000000
2024-04-18T09:45:15.921Z,45.000000
2024-04-18T09:50:15.885Z,67.500000
2024-04-18T09:55:15.960Z,45.000000
2024-04-18T10:00:16.196Z,45.000000
2024-04-18T10:05:16.128Z,45.000000
2024-04-18T10:10:15.897Z,45.000000
2024-04-18T10:15:15.876Z,45.000000
2024-04-18T10:20:16.133Z,45.000000
2024-04-18T10:25:15.908Z,45.000000
2024-04-18T10:30:16.172Z,45.000000
2024-04-18T10:35:15.981Z,45.000000
2024-04-18T10:40:16.223Z,45.000000
2024-04-18T10:45:15.952Z,45.000000
2024-04-18T10:50:15.944Z,45.000000
2024-04-18T10:55:16.265Z,90.000000
2024-04-18T11:00:15.980Z,67.500000
2024-04-18T11:05:16.340Z,45.000000
2024-04-18T11:10:16.113Z,45.000000
2024-04-18T11:15:16.045Z,67.500000
2024-04-18T11:20:15.987Z,45.000000
2024-04-18T11:25:16.299Z,45.000000
2024-04-18T11:30:16.138Z,45.000000
2024-04-18T11:35:17.555Z,67.500000
2024-04-18T11:40:16.112Z,45.000000
2024-04-18T11:45:16.097Z,45.000000
2024-04-18T11:50:16.137Z,45.000000
2024-04-18T11:55:16.226Z,90.000000
2024-04-18T12:00:16.126Z,22.500000
2024-04-18T12:05:16.298Z,67.500000
2024-04-18T12:10:16.292Z,67.500000
2024-04-18T12:15:16.168Z,45.000000
2024-04-18T12:20:16.094Z,45.000000
2024-04-18T12:25:16.121Z,45.000000
2024-04-18T12:30:16.175Z,67.500000
2024-04-18T12:35:16.133Z,45.000000
2024-04-18T12:40:16.385Z,45.000000
2024-04-18T12:45:18.340Z,45.000000
2024-04-18T12:50:16.377Z,22.500000
2024-04-18T12:55:16.410Z,67.500000
2024-04-18T13:00:16.325Z,45.000000
2024-04-18T13:05:16.190Z,45.000000
2024-04-18T13:10:16.477Z,45.000000
2024-04-18T13:15:16.307Z,45.000000
2024-04-18T13:20:16.341Z,45.000000
2024-04-18T13:25:16.213Z,45.000000
2024-04-18T13:30:16.524Z,45.000000
2024-04-18T13:35:16.196Z,45.000000
2024-04-18T13:40:16.291Z,45.000000
2024-04-18T13:45:16.320Z,45.000000
2024-04-18T13:50:16.251Z,90.000000
2024-04-18T13:55:16.266Z,45.000000
2024-04-18T14:00:16.336Z,45.000000
2024-04-18T14:05:16.545Z,45.000000
2024-04-18T14:10:16.343Z,45.000000
2024-04-18T14:15:16.304Z,45.000000
2024-04-18T14:20:16.572Z,45.000000
2024-04-18T14:25:16.288Z,45.000000
2024-04-18T14:30:16.373Z,45.000000
2024-04-18T14:35:16.540Z,45.000000
2024-04-18T14:40:16.510Z,45.000000
2024-04-18T14:45:16.674Z,45.000000
2024-04-18T14:50:16.426Z,45.000000
2024-04-18T14:55:16.394Z,45.000000
2024-04-18T15:00:16.393Z,45.000000
2024-04-18T15:05:16.710Z,45.000000
2024-04-18T15:10:16.560Z,45.000000
2024-04-18T15:15:16.419Z,45.000000
2024-04-18T15:20:16.848Z,45.000000
2024-04-18T15:25:16.435Z,45.000000
2024-04-18T15:30:16.698Z,45.000000
2024-04-18T15:35:16.428Z,45.000000
2024-04-18T15:40:17.941Z,112.500000
2024-04-18T15:45:16.527Z,45.000000
2024-04-18T15:50:16.467Z,45.000000
2024-04-18T15:55:21.834Z,67.500000
2024-04-18T16:00:18.558Z,67.500000
2024-04-18T16:05:16.530Z,45.000000
2024-04-18T16:10:16.547Z,67.500000
2024-04-18T16:15:16.734Z,45.000000
2024-04-18T16:20:16.744Z,67.500000
2024-04-18T16:25:16.773Z,67.500000
2024-04-18T16:30:16.622Z,90.000000
2024-04-18T16:35:16.650Z,90.000000
2024-04-18T16:40:16.587Z,67.500000
2024-04-18T16:45:16.766Z,22.500000
2024-04-18T16:50:16.574Z,45.000000
2024-04-18T16:55:16.578Z,45.000000
2024-04-18T17:00:16.577Z,45.000000
2024-04-18T17:05:16.575Z,45.000000
2024-04-18T17:10:16.680Z,22.500000
2024-04-18T17:15:16.865Z,45.000000
2024-04-18T17:20:16.831Z,45.000000
2024-04-18T17:25:16.836Z,45.000000
2024-04-18T17:30:16.656Z,22.500000
2024-04-18T17:35:16.622Z,67.500000
2024-04-18T17:40:16.951Z,45.000000
2024-04-18T17:45:16.886Z,45.000000
2024-04-18T17:50:16.676Z,45.000000
2024-04-18T17:55:16.727Z,45.000000
2024-04-18T18:00:16.992Z,45.000000
2024-04-18T18:05:16.663Z,45.000000
2024-04-18T18:10:16.756Z,45.000000
2024-04-18T18:15:16.925Z,45.000000
2024-04-18T18:20:16.697Z,22.500000
2024-04-18T18:25:16.745Z,22.500000
2024-04-18T18:30:16.951Z,45.000000
2024-04-18T18:35:16.738Z,67.500000
2024-04-18T18:40:16.845Z,45.000000
2024-04-18T18:45:16.806Z,45.000000
2024-04-18T18:50:16.798Z,22.500000
2024-04-18T18:55:16.759Z,45.000000
2024-04-18T19:00:16.850Z,22.500000
2024-04-18T19:05:16.800Z,45.000000
2024-04-18T19:10:16.820Z,45.000000
2024-04-18T19:15:16.781Z,45.000000
2024-04-18T19:20:16.797Z,22.500000
2024-04-18T19:25:16.828Z,22.500000
2024-04-18T19:30:16.842Z,67.500000
2024-04-18T19:35:16.972Z,45.000000
2024-04-18T19:40:16.896Z,22.500000
2024-04-18T19:45:16.897Z,45.000000
2024-04-18T19:50:16.892Z,45.000000
2024-04-18T19:55:17.133Z,22.500000
2024-04-18T20:00:17.148Z,45.000000
2024-04-18T20:05:16.918Z,45.000000
2024-04-18T20:10:16.948Z,67.500000
2024-04-18T20:15:16.951Z,22.500000
2024-04-18T20:20:16.937Z,45.000000
2024-04-18T20:25:16.914Z,45.000000
2024-04-18T20:30:17.347Z,45.000000
2024-04-18T20:35:16.918Z,45.000000
2024-04-18T20:40:17.008Z,45.000000
2024-04-18T20:45:16.959Z,22.500000
2024-04-18T20:50:17.002Z,22.500000
2024-04-18T20:55:17.233Z,22.500000
2024-04-18T21:00:32.130Z,22.500000
2024-04-18T21:05:17.170Z,22.500000
2024-04-18T21:10:17.016Z,45.000000
2024-04-18T21:15:17.277Z,45.000000
2024-04-18T21:20:17.014Z,22.500000
2024-04-18T21:25:17.017Z,22.500000
2024-04-18T21:30:17.082Z,45.000000
2024-04-18T21:35:17.008Z,45.000000
2024-04-18T21:40:17.077Z,45.000000
2024-04-18T21:45:17.089Z,45.000000
2024-04-18T21:50:17.172Z,45.000000
2024-04-18T21:55:17.032Z,45.000000
2024-04-18T22:00:17.102Z,45.000000
2024-04-18T22:05:17.295Z,45.000000
2024-04-18T22:10:17.085Z,67.500000
2024-04-18T22:15:17.138Z,45.000000
2024-04-18T22:20:17.139Z,22.500000
2024-04-18T22:25:17.094Z,22.500000
2024-04-18T22:30:17.128Z,22.500000
2024-04-18T22:35:19.125Z,22.500000
2024-04-18T22:40:19.159Z,22.500000
2024-04-18T22:45:17.144Z,22.500000
2024-04-18T22:50:17.200Z,22.500000
2024-04-18T22:55:17.163Z,22.500000
2024-04-18T23:00:17.465Z,45.000000
2024-04-18T23:05:15.161Z,337.500000
2024-04-18T23:10:15.242Z,337.500000
2024-04-18T23:15:15.393Z,22.500000
2024-04-18T23:20:15.218Z,337.500000
2024-04-18T23:25:15.260Z,337.500000
2024-04-18T23:30:15.249Z,337.500000
2024-04-18T23:35:15.256Z,337.500000
2024-04-18T23:40:15.582Z,337.500000
2024-04-18T23:45:15.308Z,337.500000
2024-04-18T23:50:15.503Z,22.500000
2024-04-18T23:55:15.454Z,45.000000
